Time;durP1;ratioP1;P1;durP2;ratioP2;P2;SDS_P1;SDS_P2;PMS_P1;PMS_P2;Temp;Humidity;BMP_temperature;BMP_pressure;BME280_temperature;BME280_humidity;BME280_pressure;Samples;Min_cycle;Max_cycle;Signal;HPM_P1;HPM_P2
2022/08/22 00:01:24;;;;;;;7.23;6.03;;;;;;;17.55;76.29;155871.47;4980619;28;20572;-83
2022/08/22 00:03:58;;;;;;;6.90;6.00;;;;;;;17.58;77.26;155880.53;4976017;28;20548;-83
2022/08/22 00:06:30;;;;;;;6.70;6.03;;;;;;;17.53;76.43;155867.53;4971010;28;20458;-83
2022/08/22 00:09:06;;;;;;;8.17;5.97;;;;;;;17.49;78.26;155857.09;4956131;28;20505;-83
2022/08/22 00:11:40;;;;;;;7.10;6.00;;;;;;;17.43;78.26;155840.13;4985476;28;20986;-83
2022/08/22 00:14:13;;;;;;;7.57;6.80;;;;;;;17.33;82.41;155814.13;4979026;28;20495;-83
2022/08/22 00:16:45;;;;;;;9.70;6.47;;;;;;;17.29;81.90;155803.72;4994724;28;20460;-83
2022/08/22 00:19:18;;;;;;;7.13;5.70;;;;;;;17.25;81.28;155793.28;4995251;28;20498;-83
2022/08/22 00:21:49;;;;;;;6.83;5.73;;;;;;;17.25;82.96;155793.28;5011183;28;20515;-83
2022/08/22 00:24:23;;;;;;;7.93;5.80;;;;;;;17.22;81.18;155785.47;4993365;28;20559;-83
2022/08/22 00:26:53;;;;;;;5.20;4.70;;;;;;;17.25;80.33;155794.59;5000419;28;20527;-83
2022/08/22 00:29:24;;;;;;;6.23;5.00;;;;;;;17.31;77.93;155808.91;4994775;28;20440;-83
2022/08/22 00:32:01;;;;;;;5.43;4.93;;;;;;;17.41;79.60;155834.94;5011283;28;20429;-83
2022/08/22 00:34:33;;;;;;;7.10;5.07;;;;;;;17.45;79.61;155845.34;5012614;28;20445;-83
2022/08/22 00:37:03;;;;;;;7.00;5.07;;;;;;;17.47;77.72;155850.56;4994927;28;20477;-83
2022/08/22 00:39:34;;;;;;;6.63;5.07;;;;;;;17.50;78.84;155858.38;4991147;28;20456;-83
2022/08/22 00:42:43;;;;;;;5.97;4.93;;;;;;;17.52;79.15;155863.59;4989552;28;20496;-83
2022/08/22 00:45:27;;;;;;;5.83;4.93;;;;;;;17.52;77.53;155863.59;4990523;28;20507;-83
2022/08/22 00:48:08;;;;;;;6.50;4.60;;;;;;;17.54;76.18;155868.84;5006186;28;20464;-83
2022/08/22 00:50:52;;;;;;;5.63;4.80;;;;;;;17.55;75.67;155872.72;5010214;28;20452;-83
2022/08/22 00:53:40;;;;;;;5.43;4.93;;;;;;;17.52;75.37;155864.91;4975411;28;20437;-83
2022/08/22 00:56:26;;;;;;;5.57;4.50;;;;;;;17.51;74.64;155862.28;4981002;28;20847;-83
2022/08/22 00:59:05;;;;;;;4.67;4.17;;;;;;;17.52;74.97;155864.91;4989721;28;20453;-83
2022/08/22 01:01:34;;;;;;;4.30;3.90;;;;;;;17.52;74.77;155863.59;4989939;28;20469;-83
2022/08/22 01:04:24;;;;;;;6.07;5.57;;;;;;;17.50;77.66;155858.38;4981929;28;20535;-83
2022/08/22 01:07:02;;;;;;;4.83;4.43;;;;;;;17.46;77.52;155847.94;5010467;28;20789;-83
2022/08/22 01:09:38;;;;;;;5.50;4.70;;;;;;;17.42;75.49;155837.56;5009755;28;20436;-83
2022/08/22 01:12:25;;;;;;;4.80;4.40;;;;;;;17.38;74.28;155828.44;5000279;28;20571;-83
2022/08/22 01:14:56;;;;;;;4.87;4.47;;;;;;;17.36;74.14;155821.94;4990906;28;20480;-83
2022/08/22 01:17:48;;;;;;;6.23;5.10;;;;;;;17.32;74.00;155811.50;4977966;28;20457;-83
2022/08/22 01:21:06;;;;;;;6.57;4.93;;;;;;;17.29;74.01;155803.72;4982223;28;21023;-83
2022/08/22 01:24:06;;;;;;;6.00;4.47;;;;;;;17.29;75.29;155803.72;4958592;28;20453;-83
2022/08/22 01:27:13;;;;;;;5.70;5.20;;;;;;;17.27;75.08;155798.47;4989174;28;20508;-83
2022/08/22 01:30:11;;;;;;;6.00;5.20;;;;;;;17.21;76.21;155784.16;4957190;28;20489;-83
2022/08/22 01:33:11;;;;;;;5.40;4.87;;;;;;;17.16;77.15;155769.84;4991019;28;20472;-75
2022/08/22 01:36:07;;;;;;;7.13;5.33;;;;;;;17.10;74.27;155754.25;4991741;28;20481;-75
2022/08/22 01:38:47;;;;;;;5.40;4.90;;;;;;;17.09;74.80;155751.63;4983716;28;20796;-83
2022/08/22 01:41:26;;;;;;;7.93;5.30;;;;;;;16.99;75.41;155728.25;4989571;28;20863;-83
2022/08/22 01:44:07;;;;;;;6.10;5.20;;;;;;;16.94;76.87;155713.94;4986607;28;20553;-83
2022/08/22 01:46:45;;;;;;;5.50;4.97;;;;;;;16.82;80.44;155684.00;4974617;28;20465;-83
2022/08/22 01:49:18;;;;;;;5.70;5.13;;;;;;;16.77;77.39;155670.97;4991921;28;20815;-83
2022/08/22 01:51:50;;;;;;;6.43;5.77;;;;;;;16.78;76.59;155673.59;4973775;28;20496;-83
2022/08/22 01:54:27;;;;;;;6.63;5.23;;;;;;;16.82;76.35;155684.00;4991407;28;20445;-83
2022/08/22 01:56:59;;;;;;;7.60;5.47;;;;;;;16.84;75.27;155689.19;4974294;28;20421;-83
2022/08/22 01:59:33;;;;;;;6.60;5.33;;;;;;;16.92;71.85;155708.69;4973645;28;20437;-82
2022/08/22 02:02:05;;;;;;;5.83;5.23;;;;;;;16.98;72.58;155724.31;4972346;28;20931;-83
2022/08/22 02:04:39;;;;;;;5.87;5.27;;;;;;;17.00;72.82;155730.81;4971013;28;20489;-83
2022/08/22 02:07:13;;;;;;;5.70;5.20;;;;;;;16.92;72.62;155710.00;4973602;28;20504;-83
2022/08/22 02:09:54;;;;;;;6.73;5.30;;;;;;;16.83;74.05;155686.59;4990778;28;20520;-83
2022/08/22 02:12:26;;;;;;;5.90;5.30;;;;;;;16.79;73.20;155676.19;4985667;28;20524;-83
2022/08/22 02:15:01;;;;;;;8.10;4.80;;;;;;;16.78;72.72;155673.59;4985842;28;20537;-83
2022/08/22 02:17:31;;;;;;;6.83;5.73;;;;;;;16.79;72.85;155676.19;4955367;28;20452;-83
2022/08/22 02:20:02;;;;;;;6.07;5.47;;;;;;;16.77;73.53;155670.97;4966540;28;20489;-83
2022/08/22 02:22:37;;;;;;;5.73;5.23;;;;;;;16.67;73.83;155644.97;4977325;28;20875;-83
2022/08/22 02:25:09;;;;;;;7.27;6.10;;;;;;;16.57;78.05;155618.97;4975909;28;20507;-83
2022/08/22 02:27:43;;;;;;;7.10;5.90;;;;;;;16.49;76.10;155596.78;4975963;28;20784;-76
2022/08/22 02:30:13;;;;;;;8.03;6.07;;;;;;;16.44;76.00;155586.38;4973907;28;20452;-75
2022/08/22 02:32:51;;;;;;;6.70;6.00;;;;;;;16.41;77.46;155578.56;4977051;28;20448;-75
2022/08/22 02:35:24;;;;;;;7.87;7.10;;;;;;;16.37;79.04;155568.16;4977247;28;20472;-75
2022/08/22 02:38:01;;;;;;;9.00;7.00;;;;;;;16.37;79.85;155566.84;4960820;28;20552;-75
2022/08/22 02:40:32;;;;;;;8.60;7.70;;;;;;;16.29;82.94;155547.34;4971338;28;20458;-75
2022/08/22 02:43:03;;;;;;;8.87;8.07;;;;;;;16.16;84.34;155512.25;4988186;28;20572;-76
2022/08/22 02:45:37;;;;;;;8.50;7.53;;;;;;;16.06;84.08;155487.56;4994835;28;20477;-75
2022/08/22 02:48:11;;;;;;;7.93;7.13;;;;;;;16.07;83.51;155488.88;4973590;28;20528;-75
2022/08/22 02:50:45;;;;;;;7.93;6.90;;;;;;;16.07;83.08;155488.88;4975990;28;20449;-75
2022/08/22 02:53:16;;;;;;;7.67;6.97;;;;;;;16.06;83.67;155486.25;4976394;28;20450;-75
2022/08/22 02:55:49;;;;;;;9.47;7.80;;;;;;;16.06;82.67;155486.25;4976498;28;20507;-76
2022/08/22 02:58:25;;;;;;;8.37;7.63;;;;;;;16.04;82.41;155482.38;4974459;28;20475;-75
2022/08/22 03:01:14;;;;;;;8.00;6.73;;;;;;;16.04;81.55;155481.06;4976679;28;20437;-75
2022/08/22 03:03:42;;;;;;;8.23;7.43;;;;;;;16.05;82.73;155483.63;4977096;28;20839;-75
2022/08/22 03:06:30;;;;;;;7.13;6.53;;;;;;;15.92;85.08;155451.13;4993841;28;20429;-75
2022/08/22 03:09:08;;;;;;;8.20;7.30;;;;;;;15.84;84.01;155431.63;4976566;28;20453;-75
2022/08/22 03:11:38;;;;;;;7.90;7.20;;;;;;;15.83;84.01;155429.03;4974063;28;20475;-75
2022/08/22 03:14:09;;;;;;;8.23;7.30;;;;;;;15.82;84.72;155426.44;4974349;28;20455;-75
2022/08/22 03:16:39;;;;;;;8.90;7.90;;;;;;;15.76;83.59;155410.84;4991741;28;20414;-76
2022/08/22 03:19:09;;;;;;;8.30;7.60;;;;;;;15.78;83.63;155416.03;4991569;28;20456;-76
2022/08/22 03:21:42;;;;;;;9.50;8.47;;;;;;;15.75;85.81;155408.22;4975233;28;20441;-74
2022/08/22 03:24:14;;;;;;;8.80;7.90;;;;;;;15.72;84.91;155399.16;4993282;28;20516;-76
2022/08/22 03:26:46;;;;;;;9.10;6.97;;;;;;;15.71;85.16;155397.84;4987818;28;20449;-75
2022/08/22 03:29:17;;;;;;;9.40;7.77;;;;;;;15.67;84.74;155386.16;4991200;28;20845;-75
2022/08/22 03:32:14;;;;;;;8.90;8.00;;;;;;;15.64;86.32;155378.34;4989678;28;20450;-82
2022/08/22 03:34:57;;;;;;;9.60;8.10;;;;;;;15.62;86.36;155373.16;4975086;28;20481;-82
2022/08/22 03:37:32;;;;;;;10.50;7.63;;;;;;;15.63;86.49;155377.03;4991390;28;20476;-82
2022/08/22 03:40:05;;;;;;;8.57;7.77;;;;;;;15.58;88.33;155362.75;4989138;28;20449;-82
2022/08/22 03:42:59;;;;;;;9.60;8.10;;;;;;;15.55;88.77;155356.25;4959012;28;20878;-82
2022/08/22 03:45:49;;;;;;;8.30;6.77;;;;;;;15.59;87.99;155366.66;4942720;28;20441;-82
2022/08/22 03:48:44;;;;;;;7.90;6.30;;;;;;;15.61;88.58;155371.84;4985849;28;20552;-83
2022/08/22 03:51:20;;;;;;;8.10;7.30;;;;;;;15.62;88.82;155374.41;4973522;28;20997;-82
2022/08/22 03:54:18;;;;;;;10.07;9.00;;;;;;;15.58;89.53;155364.03;4992738;28;20445;-82
2022/08/22 03:57:09;;;;;;;8.53;7.07;;;;;;;15.58;89.76;155362.75;4975635;28;20528;-82
2022/08/22 04:00:01;;;;;;;8.73;7.77;;;;;;;15.53;90.16;155351.06;4966263;28;20549;-82
2022/08/22 04:02:47;;;;;;;8.70;7.90;;;;;;;15.52;88.95;155348.44;4973758;28;20481;-82
2022/08/22 04:05:29;;;;;;;8.27;7.47;;;;;;;15.44;90.41;155326.28;4970356;28;20449;-82
2022/08/22 04:08:07;;;;;;;8.77;7.03;;;;;;;15.35;90.73;155304.22;4981113;28;20484;-82
2022/08/22 04:13:42;;;;;;;10.00;6.67;;;;;;;15.29;90.85;155287.31;5088919;28;20900;-83
2022/08/22 04:16:41;;;;;;;9.27;7.07;;;;;;;15.21;91.28;155269.13;5119948;28;20450;-83
2022/08/22 04:19:39;;;;;;;8.13;7.33;;;;;;;15.18;91.24;155261.31;5116670;28;20971;-83
2022/08/22 04:22:26;;;;;;;9.20;8.30;;;;;;;15.15;90.73;155252.22;5049116;28;20443;-83
2022/08/22 04:24:59;;;;;;;7.63;6.97;;;;;;;15.12;90.65;155244.41;5047846;28;20853;-83
2022/08/22 04:27:29;;;;;;;8.17;7.30;;;;;;;15.12;90.92;155245.72;5088261;28;20466;-83
2022/08/22 04:30:03;;;;;;;8.60;6.70;;;;;;;15.10;90.03;155240.53;5046751;28;20521;-83
2022/08/22 04:32:36;;;;;;;8.57;7.57;;;;;;;15.14;90.55;155249.66;5080280;28;20910;-83
2022/08/22 04:35:06;;;;;;;9.63;7.17;;;;;;;15.09;91.10;155237.91;5063938;28;20598;-83
2022/08/22 04:37:38;;;;;;;8.30;7.27;;;;;;;15.06;90.85;155228.84;5061488;28;20465;-76
2022/08/22 04:40:10;;;;;;;8.60;7.80;;;;;;;15.10;90.80;155239.22;5047235;28;20430;-76
2022/08/22 04:42:40;;;;;;;8.30;7.40;;;;;;;15.02;91.42;155219.75;5062383;28;20441;-75
2022/08/22 04:45:12;;;;;;;11.50;8.17;;;;;;;15.00;92.35;155213.25;5062697;28;21028;-74
2022/08/22 04:47:42;;;;;;;7.80;6.50;;;;;;;14.97;92.83;155206.75;5078755;28;20458;-74
2022/08/22 04:50:14;;;;;;;9.10;6.80;;;;;;;14.90;93.29;155187.28;5067504;28;20521;-74
2022/08/22 04:52:51;;;;;;;8.40;7.60;;;;;;;14.95;93.74;155200.25;5093553;28;20484;-75
2022/08/22 04:55:26;;;;;;;8.90;7.23;;;;;;;14.95;92.84;155200.25;5075130;28;20453;-75
2022/08/22 04:57:57;;;;;;;8.77;7.47;;;;;;;14.95;94.44;155200.25;5066036;28;20541;-74
2022/08/22 05:00:25;;;;;;;9.37;8.37;;;;;;;14.94;94.82;155198.94;5098821;28;20459;-74
2022/08/22 05:02:56;;;;;;;8.50;7.20;;;;;;;15.00;94.65;155214.56;5058187;28;20525;-75
2022/08/22 05:05:25;;;;;;;8.80;6.60;;;;;;;15.08;94.13;155234.03;5063227;28;20542;-75
2022/08/22 05:07:55;;;;;;;9.10;7.33;;;;;;;15.10;93.81;155240.53;5063057;28;20451;-74
2022/08/22 05:10:25;;;;;;;9.93;7.63;;;;;;;15.21;92.82;155267.81;5073183;28;20894;-75
2022/08/22 05:12:54;;;;;;;7.63;6.83;;;;;;;15.28;93.04;155286.00;5090523;28;20902;-75
2022/08/22 05:15:26;;;;;;;7.30;6.60;;;;;;;15.28;93.07;155286.00;5068798;28;20437;-75
2022/08/22 05:17:56;;;;;;;7.67;6.87;;;;;;;15.27;93.31;155282.13;5087263;28;20852;-75
2022/08/22 05:20:24;;;;;;;9.67;8.87;;;;;;;15.35;94.05;155302.91;5068405;28;20437;-75
2022/08/22 05:22:55;;;;;;;8.50;7.47;;;;;;;15.42;92.72;155321.09;5116924;28;20449;-74
2022/08/22 05:25:26;;;;;;;11.23;7.87;;;;;;;15.49;92.01;155340.63;5072648;28;20457;-74
2022/08/22 05:28:03;;;;;;;8.43;6.67;;;;;;;15.60;91.29;155369.22;5080762;28;20550;-75
2022/08/22 05:30:33;;;;;;;10.00;7.30;;;;;;;15.73;89.74;155401.72;5051409;28;20453;-75
2022/08/22 05:33:07;;;;;;;8.90;8.03;;;;;;;15.90;91.50;155444.63;5053262;28;20477;-75
2022/08/22 05:35:36;;;;;;;8.53;7.47;;;;;;;16.02;88.94;155475.88;5064899;28;20502;-75
2022/08/22 05:38:04;;;;;;;9.03;7.20;;;;;;;16.20;88.87;155522.66;5059890;28;20549;-74
2022/08/22 05:40:33;;;;;;;9.33;8.37;;;;;;;16.44;89.10;155585.09;5089013;28;20436;-75
2022/08/22 05:43:00;;;;;;;8.90;7.00;;;;;;;16.63;87.85;155634.53;5105996;28;20450;-75
2022/08/22 05:45:27;;;;;;;7.60;6.83;;;;;;;16.85;87.24;155690.50;5041183;28;20483;-75
2022/08/22 05:47:59;;;;;;;7.93;7.13;;;;;;;17.11;86.03;155758.16;5060833;28;20580;-75
2022/08/22 05:50:33;;;;;;;9.67;8.67;;;;;;;17.40;84.43;155832.31;5071298;28;20438;-75
2022/08/22 05:53:05;;;;;;;10.37;7.10;;;;;;;17.64;82.77;155896.16;5044311;28;20498;-75
2022/08/22 05:55:33;;;;;;;8.60;7.60;;;;;;;17.84;81.14;155945.66;5032772;28;20419;-75
2022/08/22 05:58:20;;;;;;;8.30;7.50;;;;;;;17.96;81.53;155978.19;5081592;28;20476;-75
2022/08/22 06:00:49;;;;;;;8.23;7.43;;;;;;;18.17;78.92;156032.88;5090808;28;20946;-75
2022/08/22 06:03:25;;;;;;;6.40;5.80;;;;;;;18.24;77.60;156049.84;5033886;28;20868;-75
2022/08/22 06:05:54;;;;;;;6.90;6.30;;;;;;;18.45;77.07;156104.53;5042942;28;20557;-75
2022/08/22 06:08:25;;;;;;;7.53;6.73;;;;;;;18.27;77.31;156056.34;5060255;28;20651;-75
2022/08/22 06:10:54;;;;;;;7.27;6.37;;;;;;;18.02;78.70;155993.81;5036144;28;20466;-75
2022/08/22 06:13:25;;;;;;;6.97;6.30;;;;;;;18.25;78.20;156053.72;5077984;28;20478;-75
2022/08/22 06:15:56;;;;;;;7.10;6.40;;;;;;;18.57;78.17;156135.84;5068331;28;20446;-75
2022/08/22 06:18:26;;;;;;;10.27;6.70;;;;;;;18.83;75.44;156202.25;5037066;28;20547;-75
2022/08/22 06:20:56;;;;;;;7.00;6.30;;;;;;;19.15;75.25;156285.66;5049536;28;20960;-75
2022/08/22 06:23:27;;;;;;;7.00;6.30;;;;;;;19.50;72.89;156374.34;5031610;28;20539;-75
2022/08/22 06:25:58;;;;;;;7.13;6.43;;;;;;;19.75;72.25;156439.56;5056929;28;20481;-75
2022/08/22 06:28:27;;;;;;;7.77;6.47;;;;;;;20.04;70.35;156515.19;5065108;28;20495;-75
2022/08/22 06:30:55;;;;;;;7.20;6.50;;;;;;;20.41;70.91;156610.44;5045790;28;20814;-75
2022/08/22 06:33:26;;;;;;;6.63;6.03;;;;;;;20.71;68.53;156687.34;5049901;28;20549;-75
2022/08/22 06:38:54;;;;;;;7.03;6.33;;;;;;;21.30;66.87;156841.41;5064808;28;20432;-75
2022/08/22 06:41:21;;;;;;;6.77;6.00;;;;;;;21.28;67.61;156834.88;5030863;28;20447;-75
2022/08/22 06:43:51;;;;;;;7.40;6.60;;;;;;;21.35;64.84;156853.13;5069829;28;20451;-75
2022/08/22 06:46:19;;;;;;;7.30;6.63;;;;;;;21.58;66.80;156913.16;5072037;28;20426;-75
2022/08/22 06:48:48;;;;;;;6.67;5.97;;;;;;;22.01;63.42;157025.53;5070521;28;20464;-75
2022/08/22 06:51:16;;;;;;;6.73;6.10;;;;;;;22.27;61.19;157093.44;5058536;28;20461;-75
2022/08/22 06:53:46;;;;;;;7.33;6.43;;;;;;;22.35;59.99;157113.00;5035591;28;20480;-75
2022/08/22 06:56:13;;;;;;;6.70;6.10;;;;;;;22.58;59.92;157171.81;5049045;28;20571;-75
2022/08/22 06:58:42;;;;;;;8.70;6.47;;;;;;;22.71;58.64;157207.16;5032536;28;20436;-75
2022/08/22 07:01:12;;;;;;;6.10;5.60;;;;;;;22.88;60.13;157251.53;5032297;28;20440;-75
2022/08/22 07:03:41;;;;;;;6.43;5.83;;;;;;;22.98;59.83;157276.41;5047338;28;20458;-76
2022/08/22 07:06:14;;;;;;;7.23;6.53;;;;;;;23.21;59.07;157335.19;5063928;28;20493;-75
2022/08/22 07:08:41;;;;;;;5.97;5.40;;;;;;;23.53;58.49;157418.88;5043015;28;20922;-75
2022/08/22 07:11:11;;;;;;;7.20;5.30;;;;;;;23.77;56.04;157481.66;5035501;28;20546;-76
2022/08/22 07:13:39;;;;;;;6.00;5.47;;;;;;;24.01;56.90;157543.09;5055005;28;20477;-75
2022/08/22 07:16:08;;;;;;;7.00;6.20;;;;;;;24.20;53.89;157592.78;5050525;28;20530;-76
2022/08/22 07:18:42;;;;;;;5.80;5.20;;;;;;;24.30;52.14;157617.66;5086846;28;20476;-75
2022/08/22 07:21:09;;;;;;;5.50;5.00;;;;;;;24.06;53.24;157557.47;5033113;28;20443;-75
2022/08/22 07:23:43;;;;;;;5.17;4.77;;;;;;;24.34;53.97;157629.44;5078910;28;20477;-76
2022/08/22 07:26:17;;;;;;;5.30;4.80;;;;;;;24.71;51.52;157724.91;5030773;28;20420;-76
2022/08/22 07:28:46;;;;;;;6.47;4.80;;;;;;;24.76;50.55;157737.97;5048261;28;20450;-76
2022/08/22 07:31:17;;;;;;;5.80;4.80;;;;;;;24.83;50.99;157756.38;5059366;28;20446;-75
2022/08/22 07:33:47;;;;;;;6.17;4.80;;;;;;;24.98;51.70;157795.63;5057840;28;20565;-76
2022/08/22 07:36:29;;;;;;;6.30;5.70;;;;;;;25.19;50.14;157850.59;5049800;28;20510;-76
2022/08/22 07:39:08;;;;;;;7.70;5.60;;;;;;;24.84;51.43;157758.97;5040829;28;20478;-75
2022/08/22 07:41:43;;;;;;;5.43;4.93;;;;;;;25.28;50.88;157874.09;5034739;28;20467;-76
2022/08/22 07:44:15;;;;;;;5.37;4.97;;;;;;;25.30;49.08;157879.38;5030148;28;20497;-76
2022/08/22 07:46:50;;;;;;;5.63;5.13;;;;;;;24.89;49.83;157772.03;5050593;28;21013;-76
2022/08/22 07:49:20;;;;;;;8.20;5.70;;;;;;;24.20;51.90;157594.09;5067346;28;20481;-76
2022/08/22 07:51:49;;;;;;;5.80;5.20;;;;;;;24.40;51.87;157645.13;5052642;28;20455;-76
2022/08/22 07:54:22;;;;;;;5.97;5.40;;;;;;;24.85;51.66;157761.59;5065039;28;20555;-76
2022/08/22 07:56:53;;;;;;;8.67;5.77;;;;;;;25.39;49.85;157902.91;5034268;28;20494;-75
2022/08/22 07:59:21;;;;;;;6.10;5.40;;;;;;;25.15;51.14;157838.81;5031570;28;20501;-75
2022/08/22 08:01:50;;;;;;;5.93;5.33;;;;;;;25.40;50.04;157904.22;5077746;28;20949;-76
2022/08/22 08:04:20;;;;;;;5.60;5.20;;;;;;;25.29;49.91;157875.44;5069950;28;20499;-76
2022/08/22 08:06:48;;;;;;;5.53;5.03;;;;;;;25.11;50.19;157829.63;5051449;28;20453;-76
2022/08/22 08:09:15;;;;;;;6.70;4.80;;;;;;;24.98;50.00;157794.31;5048203;28;20449;-76
2022/08/22 08:11:44;;;;;;;5.60;5.17;;;;;;;25.16;50.42;157841.41;5057788;28;20478;-76
2022/08/22 08:14:13;;;;;;;4.80;4.40;;;;;;;25.35;50.14;157891.13;5043101;28;20990;-76
2022/08/22 08:16:42;;;;;;;6.37;5.77;;;;;;;25.44;49.84;157916.00;5045268;28;20535;-76
2022/08/22 08:19:11;;;;;;;6.40;5.80;;;;;;;25.98;49.10;158054.81;5033263;28;20439;-76
2022/08/22 08:21:41;;;;;;;6.07;5.53;;;;;;;26.16;48.44;158100.72;5057724;28;20945;-76
2022/08/22 08:24:13;;;;;;;5.43;4.97;;;;;;;26.08;49.26;158080.97;5049983;28;20951;-76
2022/08/22 08:28:32;;;;;;;5.03;4.53;;;;;;;25.97;48.37;158052.22;5043882;28;20796;-76
2022/08/22 08:29:31;;;;;;;5.83;5.30;;;;;;;25.95;48.57;158046.94;5051212;28;20442;-76
2022/08/22 08:31:59;;;;;;;5.43;4.93;;;;;;;26.12;48.65;158091.47;5030210;28;20660;-76
2022/08/22 08:34:27;;;;;;;4.87;4.47;;;;;;;26.39;48.95;158162.25;5053755;28;20543;-76
2022/08/22 08:36:56;;;;;;;4.97;4.57;;;;;;;26.33;48.14;158146.53;5072879;28;20500;-76
2022/08/22 08:39:42;;;;;;;6.93;5.60;;;;;;;26.46;48.23;158180.56;5047357;28;20451;-76
2022/08/22 08:42:29;;;;;;;6.20;5.70;;;;;;;26.40;47.83;158164.84;5044569;28;20811;-76
2022/08/22 08:45:18;;;;;;;5.90;5.23;;;;;;;26.07;48.84;158078.41;5062412;28;20937;-76
2022/08/22 08:48:05;;;;;;;5.57;4.97;;;;;;;26.30;48.81;158138.66;5078764;28;20880;-76
2022/08/22 08:50:42;;;;;;;6.50;5.43;;;;;;;26.66;48.02;158230.34;5049029;28;20879;-76
2022/08/22 08:53:42;;;;;;;6.83;5.10;;;;;;;26.71;47.35;158243.44;5056972;28;20495;-76
2022/08/22 08:56:16;;;;;;;5.77;5.27;;;;;;;26.80;47.51;158267.06;5058214;28;20561;-76
2022/08/22 08:58:49;;;;;;;5.70;5.20;;;;;;;26.50;48.43;158191.03;5070722;28;20418;-76
2022/08/22 09:01:37;;;;;;;5.67;5.17;;;;;;;26.48;47.98;158185.81;5038492;28;20447;-76
2022/08/22 09:04:55;;;;;;;5.33;4.87;;;;;;;26.95;48.29;158306.38;5053397;28;20427;-76
2022/08/22 09:07:44;;;;;;;6.30;5.10;;;;;;;26.74;48.25;158251.31;5020402;28;20550;-76
2022/08/22 09:10:26;;;;;;;5.20;4.73;;;;;;;27.11;47.75;158348.31;5002768;28;20464;-76
2022/08/22 09:13:07;;;;;;;5.50;5.10;;;;;;;26.86;48.89;158282.78;5024342;28;20819;-76
2022/08/22 09:15:50;;;;;;;5.37;4.90;;;;;;;26.38;49.25;158159.63;5032296;28;20435;-76
2022/08/22 09:18:44;;;;;;;6.50;5.90;;;;;;;26.24;49.75;158121.66;5032454;28;21023;-76
2022/08/22 09:21:24;;;;;;;6.93;6.33;;;;;;;26.01;50.06;158064.00;5097266;28;20519;-76
2022/08/22 09:24:20;;;;;;;5.40;5.00;;;;;;;26.33;49.64;158146.53;5072357;28;20426;-75
2022/08/22 09:26:49;;;;;;;6.10;5.50;;;;;;;26.40;50.64;158164.84;5006108;28;20946;-75
2022/08/22 09:29:34;;;;;;;5.80;5.20;;;;;;;26.51;49.52;158193.66;5059834;28;20461;-75
2022/08/22 09:32:08;;;;;;;7.03;5.50;;;;;;;26.51;49.64;158193.66;5051532;28;20535;-75
2022/08/22 09:34:37;;;;;;;5.93;5.00;;;;;;;26.32;48.47;158142.56;5041189;28;21048;-75
2022/08/22 09:37:16;;;;;;;5.30;4.90;;;;;;;25.66;51.30;157971.00;5047409;28;20452;-75
2022/08/22 09:39:50;;;;;;;6.30;5.80;;;;;;;26.03;51.14;158067.88;5048363;28;20550;-75
2022/08/22 09:42:21;;;;;;;6.40;5.40;;;;;;;26.03;50.49;158067.88;5032759;28;20495;-75
2022/08/22 09:44:59;;;;;;;6.10;5.43;;;;;;;26.12;49.58;158090.16;5085690;28;20441;-75
2022/08/22 09:47:31;;;;;;;6.07;5.47;;;;;;;26.42;49.73;158168.81;5067150;28;20462;-75
2022/08/22 09:50:04;;;;;;;6.20;5.70;;;;;;;26.15;51.37;158098.06;5046589;28;20515;-75
2022/08/22 09:52:47;;;;;;;7.50;6.63;;;;;;;26.16;52.11;158101.97;5051682;28;20442;-75
2022/08/22 09:55:23;;;;;;;5.50;5.03;;;;;;;26.09;50.43;158083.63;5048238;28;20454;-75
2022/08/22 09:57:51;;;;;;;5.40;5.00;;;;;;;26.55;49.56;158204.19;5050177;28;20441;-75
2022/08/22 10:00:21;;;;;;;5.53;5.03;;;;;;;26.49;48.46;158188.44;5092783;28;20557;-75
2022/08/22 10:02:59;;;;;;;6.17;5.57;;;;;;;26.32;50.81;158143.88;5052087;28;20691;-75
2022/08/22 10:05:28;;;;;;;5.63;5.17;;;;;;;26.43;51.54;158172.72;5038117;28;20847;-75
2022/08/22 10:08:14;;;;;;;5.50;5.07;;;;;;;26.05;50.88;158073.16;5038471;28;20918;-75
2022/08/22 10:11:11;;;;;;;5.60;5.20;;;;;;;25.90;48.16;158035.19;5046165;28;20446;-75
2022/08/22 10:13:46;;;;;;;6.43;5.87;;;;;;;25.85;50.30;158020.78;5050119;28;20475;-75
2022/08/22 10:16:21;;;;;;;5.77;5.13;;;;;;;25.86;49.85;158023.41;5043579;28;20447;-75
2022/08/22 10:18:56;;;;;;;6.73;6.13;;;;;;;25.92;49.53;158039.13;5045329;28;21049;-75
2022/08/22 10:21:33;;;;;;;5.47;5.03;;;;;;;25.93;48.67;158043.03;5057570;28;20552;-75
2022/08/22 10:24:03;;;;;;;7.70;5.20;;;;;;;25.85;48.06;158020.78;5036437;28;20431;-75
2022/08/22 10:26:34;;;;;;;5.37;4.90;;;;;;;25.76;46.11;157998.50;5056037;28;20884;-75
2022/08/22 10:29:12;;;;;;;5.60;5.10;;;;;;;25.85;48.82;158020.78;5090064;28;20497;-75
2022/08/22 10:31:43;;;;;;;5.03;4.50;;;;;;;26.14;47.49;158095.44;5061007;28;20836;-75
2022/08/22 10:34:15;;;;;;;5.60;5.10;;;;;;;26.40;46.70;158164.84;5058361;28;20602;-75
2022/08/22 10:36:48;;;;;;;4.33;3.93;;;;;;;26.14;47.03;158096.75;5047199;28;20466;-75
2022/08/22 10:39:22;;;;;;;5.13;4.63;;;;;;;26.35;48.15;158150.44;5047236;28;20966;-75
2022/08/22 10:42:00;;;;;;;5.23;4.83;;;;;;;26.38;45.83;158159.63;5049995;28;20541;-75
2022/08/22 10:44:33;;;;;;;7.43;4.57;;;;;;;26.14;44.20;158096.75;5057044;28;20548;-75
2022/08/22 10:47:04;;;;;;;4.93;4.20;;;;;;;25.87;44.54;158026.00;5052795;28;20466;-75
2022/08/22 10:49:34;;;;;;;4.90;4.40;;;;;;;26.05;46.81;158073.16;5047657;28;20534;-75
2022/08/22 10:52:04;;;;;;;6.67;4.90;;;;;;;25.93;49.54;158041.72;5080074;28;20775;-75
2022/08/22 10:54:38;;;;;;;6.30;5.10;;;;;;;25.83;47.08;158015.53;5051240;28;20458;-75
2022/08/22 10:57:13;;;;;;;5.60;5.10;;;;;;;25.66;46.55;157971.00;5052162;28;20453;-74
2022/08/22 10:59:44;;;;;;;5.27;4.87;;;;;;;25.76;45.08;157997.22;5062257;28;20449;-76
2022/08/22 11:02:24;;;;;;;5.20;4.70;;;;;;;25.48;45.70;157925.22;5039515;28;20456;-76
2022/08/22 11:05:08;;;;;;;4.70;4.30;;;;;;;25.75;43.69;157994.59;5031174;28;20523;-76
2022/08/22 11:07:46;;;;;;;5.23;4.83;;;;;;;25.57;45.44;157948.78;5073883;28;20537;-74
2022/08/22 11:10:22;;;;;;;5.83;5.23;;;;;;;25.52;45.77;157935.72;5069407;28;20542;-76
2022/08/22 11:12:59;;;;;;;5.83;5.23;;;;;;;25.92;47.45;158040.41;5048979;28;20489;-76
2022/08/22 11:15:47;;;;;;;5.13;4.73;;;;;;;25.82;47.66;158012.91;5087856;28;20480;-76
2022/08/22 11:18:19;;;;;;;6.30;5.77;;;;;;;25.67;47.39;157974.97;5056385;28;20541;-76
2022/08/22 11:20:56;;;;;;;5.80;5.30;;;;;;;25.35;46.79;157892.47;5049552;28;20517;-76
2022/08/22 11:23:43;;;;;;;5.93;5.33;;;;;;;25.36;48.16;157895.03;5083062;28;20442;-76
2022/08/22 11:26:20;;;;;;;4.90;4.50;;;;;;;25.40;47.76;157904.22;5030687;28;20587;-76
2022/08/22 11:29:03;;;;;;;5.90;5.17;;;;;;;25.42;48.19;157909.44;5046280;28;20439;-76
2022/08/22 11:31:38;;;;;;;5.73;5.13;;;;;;;25.42;46.95;157910.75;5068481;28;20558;-76
2022/08/22 11:34:10;;;;;;;6.13;4.90;;;;;;;25.58;46.11;157951.38;5094855;28;20568;-76
2022/08/22 11:36:41;;;;;;;5.07;4.67;;;;;;;25.62;45.39;157961.88;5059196;28;20513;-76
2022/08/22 11:39:19;;;;;;;5.20;4.70;;;;;;;25.70;45.58;157981.50;5102608;28;20565;-76
2022/08/22 11:41:54;;;;;;;5.77;4.63;;;;;;;25.77;44.98;158001.13;5054351;28;20476;-76
2022/08/22 11:44:27;;;;;;;5.17;4.67;;;;;;;25.67;45.31;157974.97;5046056;28;21003;-76
2022/08/22 11:46:56;;;;;;;5.47;4.97;;;;;;;25.49;44.58;157926.53;5064722;28;20871;-74
2022/08/22 11:49:33;;;;;;;5.00;4.60;;;;;;;25.49;44.85;157926.53;5066587;28;20783;-76
2022/08/22 11:52:11;;;;;;;4.90;4.50;;;;;;;25.44;43.83;157914.72;5046656;28;20443;-76
2022/08/22 11:55:15;;;;;;;5.47;5.00;;;;;;;25.36;45.71;157893.78;5041889;28;20485;-76
2022/08/22 11:57:44;;;;;;;4.90;4.50;;;;;;;25.38;43.92;157900.31;5077346;28;20447;-76
2022/08/22 12:00:24;;;;;;;4.87;4.47;;;;;;;25.28;42.90;157872.84;5072508;28;20457;-76
2022/08/22 12:03:16;;;;;;;4.87;4.40;;;;;;;25.24;42.63;157863.66;5029307;28;20451;-76
2022/08/22 12:05:45;;;;;;;5.00;4.50;;;;;;;25.24;42.66;157863.66;5056425;28;20530;-76
2022/08/22 12:08:18;;;;;;;5.20;4.70;;;;;;;25.42;42.82;157909.44;5038837;28;20566;-76
2022/08/22 12:10:49;;;;;;;4.60;4.20;;;;;;;25.68;41.34;157976.28;5072810;28;20463;-76